sensor_id;sensor_type;location;lat;lon;timestamp;pressure;altitude;pressure_sealevel;temperature;humidity
37764;BME280;23602;51.084;7.090;2023-02-13T00:02:17;102249.31;;;7.18;100.00
37764;BME280;23602;51.084;7.090;2023-02-13T00:04:43;102247.63;;;7.17;100.00
37764;BME280;23602;51.084;7.090;2023-02-13T00:07:09;102242.44;;;7.16;100.00
37764;BME280;23602;51.084;7.090;2023-02-13T00:09:35;102249.47;;;7.17;100.00
37764;BME280;23602;51.084;7.090;2023-02-13T00:12:01;102240.72;;;7.15;100.00
37764;BME280;23602;51.084;7.090;2023-02-13T00:14:26;102236.50;;;7.12;100.00
37764;BME280;23602;51.084;7.090;2023-02-13T00:16:51;102237.59;;;7.10;100.00
37764;BME280;23602;51.084;7.090;2023-02-13T00:19:16;102238.47;;;7.10;100.00
37764;BME280;23602;51.084;7.090;2023-02-13T00:21:42;102239.03;;;7.14;100.00
37764;BME280;23602;51.084;7.090;2023-02-13T00:24:07;102234.22;;;7.08;100.00
37764;BME280;23602;51.084;7.090;2023-02-13T00:26:32;102237.75;;;7.08;100.00
37764;BME280;23602;51.084;7.090;2023-02-13T00:28:57;102241.28;;;7.09;100.00
37764;BME280;23602;51.084;7.090;2023-02-13T00:31:23;102246.75;;;7.07;100.00
37764;BME280;23602;51.084;7.090;2023-02-13T00:33:48;102232.94;;;7.02;100.00
37764;BME280;23602;51.084;7.090;2023-02-13T00:36:18;102228.88;;;7.08;100.00
37764;BME280;23602;51.084;7.090;2023-02-13T00:38:43;102228.88;;;7.08;100.00
37764;BME280;23602;51.084;7.090;2023-02-13T00:41:09;102231.81;;;7.05;100.00
37764;BME280;23602;51.084;7.090;2023-02-13T00:43:34;102231.00;;;7.04;100.00
37764;BME280;23602;51.084;7.090;2023-02-13T00:46:00;102230.28;;;7.02;100.00
37764;BME280;23602;51.084;7.090;2023-02-13T00:48:26;102229.44;;;7.02;100.00
37764;BME280;23602;51.084;7.090;2023-02-13T00:50:52;102224.38;;;6.98;100.00
37764;BME280;23602;51.084;7.090;2023-02-13T00:53:18;102220.16;;;7.06;100.00
37764;BME280;23602;51.084;7.090;2023-02-13T00:55:43;102223.53;;;6.98;100.00
37764;BME280;23602;51.084;7.090;2023-02-13T00:58:08;102218.16;;;6.98;100.00
37764;BME280;23602;51.084;7.090;2023-02-13T01:00:34;102217.91;;;7.01;100.00
37764;BME280;23602;51.084;7.090;2023-02-13T01:02:59;102214.53;;;6.99;100.00
37764;BME280;23602;51.084;7.090;2023-02-13T01:05:24;102215.66;;;6.96;100.00
37764;BME280;23602;51.084;7.090;2023-02-13T01:07:52;102209.31;;;6.97;100.00
37764;BME280;23602;51.084;7.090;2023-02-13T01:10:17;102211.97;;;6.97;100.00
37764;BME280;23602;51.084;7.090;2023-02-13T01:12:42;102216.88;;;6.92;100.00
37764;BME280;23602;51.084;7.090;2023-02-13T01:15:07;102222.94;;;6.94;100.00
37764;BME280;23602;51.084;7.090;2023-02-13T01:17:33;102217.47;;;6.96;100.00
37764;BME280;23602;51.084;7.090;2023-02-13T01:19:58;102218.31;;;6.96;100.00
37764;BME280;23602;51.084;7.090;2023-02-13T01:22:23;102210.31;;;6.96;100.00
37764;BME280;23602;51.084;7.090;2023-02-13T01:24:48;102210.31;;;6.96;100.00
37764;BME280;23602;51.084;7.090;2023-02-13T01:27:14;102202.56;;;6.93;100.00
37764;BME280;23602;51.084;7.090;2023-02-13T01:29:39;102203.53;;;6.92;100.00
37764;BME280;23602;51.084;7.090;2023-02-13T01:32:04;102208.31;;;6.89;100.00
37764;BME280;23602;51.084;7.090;2023-02-13T01:34:30;102208.56;;;6.86;100.00
37764;BME280;23602;51.084;7.090;2023-02-13T01:36:56;102202.13;;;6.88;100.00
37764;BME280;23602;51.084;7.090;2023-02-13T01:39:21;102205.31;;;6.82;100.00
37764;BME280;23602;51.084;7.090;2023-02-13T01:41:46;102208.94;;;6.81;100.00
37764;BME280;23602;51.084;7.090;2023-02-13T01:46:56;102193.91;;;6.80;100.00
37764;BME280;23602;51.084;7.090;2023-02-13T01:49:22;102204.88;;;6.77;100.00
37764;BME280;23602;51.084;7.090;2023-02-13T01:51:50;102202.91;;;6.79;100.00
37764;BME280;23602;51.084;7.090;2023-02-13T01:54:18;102203.16;;;6.76;100.00
37764;BME280;23602;51.084;7.090;2023-02-13T01:56:47;102200.38;;;6.78;100.00
37764;BME280;23602;51.084;7.090;2023-02-13T01:59:15;102197.56;;;6.79;100.00
37764;BME280;23602;51.084;7.090;2023-02-13T02:01:41;102195.03;;;6.78;100.00
37764;BME280;23602;51.084;7.090;2023-02-13T02:04:16;102211.91;;;6.78;100.00
37764;BME280;23602;51.084;7.090;2023-02-13T02:06:45;102211.06;;;6.78;100.00
37764;BME280;23602;51.084;7.090;2023-02-13T02:09:13;102203.06;;;6.78;100.00
37764;BME280;23602;51.084;7.090;2023-02-13T02:14:25;102208.50;;;6.76;100.00
37764;BME280;23602;51.084;7.090;2023-02-13T02:16:50;102213.75;;;6.78;100.00
37764;BME280;23602;51.084;7.090;2023-02-13T02:27:20;102208.06;;;6.71;100.00
37764;BME280;23602;51.084;7.090;2023-02-13T02:35:12;102207.81;;;6.74;100.00
37764;BME280;23602;51.084;7.090;2023-02-13T02:42:59;102206.41;;;6.70;100.00
37764;BME280;23602;51.084;7.090;2023-02-13T02:45:32;102209.34;;;6.67;100.00
37764;BME280;23602;51.084;7.090;2023-02-13T02:48:02;102211.59;;;6.72;100.00
37764;BME280;23602;51.084;7.090;2023-02-13T02:50:56;102197.53;;;6.70;100.00
37764;BME280;23602;51.084;7.090;2023-02-13T02:53:45;102216.09;;;6.71;100.00
37764;BME280;23602;51.084;7.090;2023-02-13T02:58:59;102204.00;;;6.67;100.00
37764;BME280;23602;51.084;7.090;2023-02-13T03:01:45;102199.34;;;6.69;100.00
37764;BME280;23602;51.084;7.090;2023-02-13T03:04:31;102204.00;;;6.67;100.00
37764;BME280;23602;51.084;7.090;2023-02-13T03:07:16;102203.84;;;6.69;100.00
37764;BME280;23602;51.084;7.090;2023-02-13T03:09:44;102201.16;;;6.69;100.00
37764;BME280;23602;51.084;7.090;2023-02-13T03:12:32;102211.75;;;6.70;100.00
37764;BME280;23602;51.084;7.090;2023-02-13T03:15:19;102213.72;;;6.68;100.00
37764;BME280;23602;51.084;7.090;2023-02-13T03:17:44;102210.88;;;6.70;100.00
37764;BME280;23602;51.084;7.090;2023-02-13T03:23:42;102214.16;;;6.73;100.00
37764;BME280;23602;51.084;7.090;2023-02-13T03:28:56;102219.16;;;6.67;100.00
37764;BME280;23602;51.084;7.090;2023-02-13T03:31:48;102220.88;;;6.68;100.00
37764;BME280;23602;51.084;7.090;2023-02-13T03:34:22;102218.06;;;6.69;100.00
37764;BME280;23602;51.084;7.090;2023-02-13T03:36:58;102213.56;;;6.70;100.00
37764;BME280;23602;51.084;7.090;2023-02-13T03:42:18;102213.81;;;6.67;100.00
37764;BME280;23602;51.084;7.090;2023-02-13T03:44:47;102214.66;;;6.67;100.00
37764;BME280;23602;51.084;7.090;2023-02-13T03:47:34;102213.81;;;6.67;100.00
37764;BME280;23602;51.084;7.090;2023-02-13T03:49:59;102214.94;;;6.64;100.00
37764;BME280;23602;51.084;7.090;2023-02-13T03:52:42;102211.31;;;6.65;100.00
37764;BME280;23602;51.084;7.090;2023-02-13T03:55:16;102212.25;;;6.64;100.00
37764;BME280;23602;51.084;7.090;2023-02-13T03:58:08;102205.69;;;6.68;100.00
37764;BME280;23602;51.084;7.090;2023-02-13T04:00:54;102209.34;;;6.67;100.00
37764;BME280;23602;51.084;7.090;2023-02-13T04:03:27;102205.94;;;6.65;100.00
37764;BME280;23602;51.084;7.090;2023-02-13T04:05:55;102198.66;;;6.67;100.00
37764;BME280;23602;51.084;7.090;2023-02-13T04:08:21;102205.09;;;6.65;100.00
37764;BME280;23602;51.084;7.090;2023-02-13T04:10:52;102210.59;;;6.63;100.00
37764;BME280;23602;51.084;7.090;2023-02-13T04:13:24;102210.72;;;6.62;100.00
37764;BME280;23602;51.084;7.090;2023-02-13T04:16:00;102215.94;;;6.63;100.00
37764;BME280;23602;51.084;7.090;2023-02-13T04:18:28;102222.38;;;6.61;100.00
37764;BME280;23602;51.084;7.090;2023-02-13T04:20:54;102218.88;;;6.60;100.00
37764;BME280;23602;51.084;7.090;2023-02-13T04:23:20;102219.97;;;6.58;100.00
37764;BME280;23602;51.084;7.090;2023-02-13T04:25:49;102212.66;;;6.60;100.00
37764;BME280;23602;51.084;7.090;2023-02-13T04:28:16;102219.97;;;6.58;100.00
37764;BME280;23602;51.084;7.090;2023-02-13T04:30:41;102217.41;;;6.56;100.00
37764;BME280;23602;51.084;7.090;2023-02-13T04:33:06;102217.16;;;6.59;100.00
37764;BME280;23602;51.084;7.090;2023-02-13T04:35:32;102223.75;;;6.55;100.00
37764;BME280;23602;51.084;7.090;2023-02-13T04:37:57;102225.44;;;6.56;100.00
37764;BME280;23602;51.084;7.090;2023-02-13T04:40:23;102224.16;;;6.51;100.00
37764;BME280;23602;51.084;7.090;2023-02-13T04:42:48;102226.09;;;6.49;100.00
37764;BME280;23602;51.084;7.090;2023-02-13T04:45:14;102218.09;;;6.49;100.00
37764;BME280;23602;51.084;7.090;2023-02-13T04:47:39;102215.41;;;6.49;100.00
37764;BME280;23602;51.084;7.090;2023-02-13T04:50:04;102212.88;;;6.47;100.00
37764;BME280;23602;51.084;7.090;2023-02-13T04:52:30;102212.03;;;6.47;100.00
37764;BME280;23602;51.084;7.090;2023-02-13T04:54:55;102214.97;;;6.44;100.00
37764;BME280;23602;51.084;7.090;2023-02-13T04:57:20;102205.13;;;6.44;100.00
37764;BME280;23602;51.084;7.090;2023-02-13T04:59:46;102206.13;;;6.43;100.00
37764;BME280;23602;51.084;7.090;2023-02-13T05:02:11;102204.13;;;6.35;100.00
37764;BME280;23602;51.084;7.090;2023-02-13T05:04:36;102204.94;;;6.36;100.00
37764;BME280;23602;51.084;7.090;2023-02-13T05:07:01;102212.66;;;6.29;100.00
37764;BME280;23602;51.084;7.090;2023-02-13T05:09:27;102214.97;;;6.23;100.00
37764;BME280;23602;51.084;7.090;2023-02-13T05:11:54;102212.16;;;6.15;100.00
37764;BME280;23602;51.084;7.090;2023-02-13T05:14:19;102211.81;;;6.08;100.00
37764;BME280;23602;51.084;7.090;2023-02-13T05:16:44;102220.91;;;6.06;100.00
37764;BME280;23602;51.084;7.090;2023-02-13T05:19:09;102213.16;;;6.03;100.00
37764;BME280;23602;51.084;7.090;2023-02-13T05:21:35;102217.34;;;5.96;100.00
37764;BME280;23602;51.084;7.090;2023-02-13T05:24:19;102217.72;;;5.91;100.00
37764;BME280;23602;51.084;7.090;2023-02-13T05:26:44;102220.06;;;5.85;100.00
37764;BME280;23602;51.084;7.090;2023-02-13T05:29:09;102221.97;;;5.83;100.00
37764;BME280;23602;51.084;7.090;2023-02-13T05:31:44;102225.88;;;5.79;100.00
37764;BME280;23602;51.084;7.090;2023-02-13T05:34:09;102230.50;;;5.77;100.00
37764;BME280;23602;51.084;7.090;2023-02-13T05:36:34;102223.38;;;5.66;100.00
37764;BME280;23602;51.084;7.090;2023-02-13T05:39:00;102229.94;;;5.62;100.00
37764;BME280;23602;51.084;7.090;2023-02-13T05:41:25;102234.69;;;5.58;100.00
37764;BME280;23602;51.084;7.090;2023-02-13T05:43:51;102233.63;;;5.50;100.00
37764;BME280;23602;51.084;7.090;2023-02-13T05:46:16;102235.22;;;5.41;100.00
37764;BME280;23602;51.084;7.090;2023-02-13T05:48:41;102237.91;;;5.41;100.00
37764;BME280;23602;51.084;7.090;2023-02-13T05:51:06;102245.16;;;5.39;100.00
37764;BME280;23602;51.084;7.090;2023-02-13T05:53:32;102243.84;;;5.34;100.00
37764;BME280;23602;51.084;7.090;2023-02-13T05:55:59;102249.53;;;5.29;100.00
37764;BME280;23602;51.084;7.090;2023-02-13T05:58:24;102248.81;;;5.27;100.00
37764;BME280;23602;51.084;7.090;2023-02-13T06:00:49;102253.44;;;5.25;100.00
37764;BME280;23602;51.084;7.090;2023-02-13T06:03:15;102244.34;;;5.17;100.00
37764;BME280;23602;51.084;7.090;2023-02-13T06:05:40;102254.44;;;5.13;100.00
37764;BME280;23602;51.084;7.090;2023-02-13T06:08:05;102247.53;;;5.10;100.00
37764;BME280;23602;51.084;7.090;2023-02-13T06:10:31;102253.94;;;5.08;100.00
37764;BME280;23602;51.084;7.090;2023-02-13T06:12:56;102251.53;;;5.05;100.00
37764;BME280;23602;51.084;7.090;2023-02-13T06:15:21;102249.34;;;4.99;100.00
37764;BME280;23602;51.084;7.090;2023-02-13T06:17:46;102252.00;;;4.99;100.00
37764;BME280;23602;51.084;7.090;2023-02-13T06:20:11;102261.94;;;4.97;100.00
37764;BME280;23602;51.084;7.090;2023-02-13T06:22:37;102262.41;;;5.02;100.00
37764;BME280;23602;51.084;7.090;2023-02-13T06:25:02;102257.94;;;4.91;100.00
37764;BME280;23602;51.084;7.090;2023-02-13T06:27:27;102261.22;;;4.84;100.00
37764;BME280;23602;51.084;7.090;2023-02-13T06:29:53;102261.81;;;4.76;100.00
37764;BME280;23602;51.084;7.090;2023-02-13T06:32:18;102262.66;;;4.77;100.00
37764;BME280;23602;51.084;7.090;2023-02-13T06:34:43;102270.19;;;4.72;100.00
37764;BME280;23602;51.084;7.090;2023-02-13T06:37:08;102274.88;;;4.68;100.00
37764;BME280;23602;51.084;7.090;2023-02-13T06:39:34;102277.91;;;4.64;100.00
37764;BME280;23602;51.084;7.090;2023-02-13T06:41:59;102272.81;;;4.61;100.00
37764;BME280;23602;51.084;7.090;2023-02-13T06:44:24;102269.19;;;4.62;100.00
37764;BME280;23602;51.084;7.090;2023-02-13T06:46:49;102277.31;;;4.60;100.00
37764;BME280;23602;51.084;7.090;2023-02-13T06:49:17;102278.88;;;4.52;100.00
37764;BME280;23602;51.084;7.090;2023-02-13T06:51:42;102271.34;;;4.45;100.00
37764;BME280;23602;51.084;7.090;2023-02-13T06:54:07;102277.88;;;4.41;100.00
37764;BME280;23602;51.084;7.090;2023-02-13T06:56:33;102279.19;;;4.36;100.00
37764;BME280;23602;51.084;7.090;2023-02-13T06:58:58;102277.84;;;4.30;100.00
37764;BME280;23602;51.084;7.090;2023-02-13T07:01:23;102283.28;;;4.29;100.00
37764;BME280;23602;51.084;7.090;2023-02-13T07:03:49;102279.63;;;4.19;100.00
37764;BME280;23602;51.084;7.090;2023-02-13T07:06:17;102285.91;;;4.18;100.00
37764;BME280;23602;51.084;7.090;2023-02-13T07:08:43;102286.13;;;4.15;100.00
37764;BME280;23602;51.084;7.090;2023-02-13T07:11:08;102288.94;;;4.13;100.00
37764;BME280;23602;51.084;7.090;2023-02-13T07:13:41;102287.97;;;4.14;100.00
37764;BME280;23602;51.084;7.090;2023-02-13T07:16:06;102290.88;;;4.11;100.00
37764;BME280;23602;51.084;7.090;2023-02-13T07:18:32;102290.47;;;4.05;100.00
37764;BME280;23602;51.084;7.090;2023-02-13T07:20:57;102290.34;;;4.06;100.00
37764;BME280;23602;51.084;7.090;2023-02-13T07:23:22;102294.09;;;4.04;100.00
37764;BME280;23602;51.084;7.090;2023-02-13T07:25:47;102295.19;;;4.01;100.00
37764;BME280;23602;51.084;7.090;2023-02-13T07:28:13;102295.63;;;3.95;100.00
37764;BME280;23602;51.084;7.090;2023-02-13T07:30:38;102286.91;;;3.93;100.00
37764;BME280;23602;51.084;7.090;2023-02-13T07:33:04;102295.75;;;3.94;100.00
37764;BME280;23602;51.084;7.090;2023-02-13T07:35:29;102285.22;;;3.92;100.00
37764;BME280;23602;51.084;7.090;2023-02-13T07:37:55;102288.59;;;3.94;100.00
37764;BME280;23602;51.084;7.090;2023-02-13T07:40:24;102293.09;;;3.94;100.00
37764;BME280;23602;51.084;7.090;2023-02-13T07:42:49;102300.44;;;3.90;100.00
37764;BME280;23602;51.084;7.090;2023-02-13T07:45:15;102296.31;;;3.86;100.00
37764;BME280;23602;51.084;7.090;2023-02-13T07:47:40;102299.06;;;3.84;100.00
37764;BME280;23602;51.084;7.090;2023-02-13T07:50:06;102306.97;;;3.86;100.00
37764;BME280;23602;51.084;7.090;2023-02-13T07:52:31;102302.47;;;3.87;100.00
37764;BME280;23602;51.084;7.090;2023-02-13T07:54:57;102308.19;;;3.93;100.00
37764;BME280;23602;51.084;7.090;2023-02-13T07:57:22;102315.19;;;3.94;100.00
37764;BME280;23602;51.084;7.090;2023-02-13T07:59:48;102314.03;;;3.98;100.00
37764;BME280;23602;51.084;7.090;2023-02-13T08:02:13;102325.28;;;4.02;100.00
37764;BME280;23602;51.084;7.090;2023-02-13T08:04:39;102330.34;;;4.05;100.00
37764;BME280;23602;51.084;7.090;2023-02-13T08:07:04;102324.94;;;4.06;100.00
37764;BME280;23602;51.084;7.090;2023-02-13T08:09:30;102329.69;;;4.14;100.00
37764;BME280;23602;51.084;7.090;2023-02-13T08:12:13;102332.72;;;4.20;100.00
37764;BME280;23602;51.084;7.090;2023-02-13T08:14:39;102343.66;;;4.28;100.00
37764;BME280;23602;51.084;7.090;2023-02-13T08:17:04;102336.16;;;4.33;100.00
37764;BME280;23602;51.084;7.090;2023-02-13T08:19:29;102335.09;;;4.36;100.00
37764;BME280;23602;51.084;7.090;2023-02-13T08:21:55;102343.13;;;4.47;100.00
37764;BME280;23602;51.084;7.090;2023-02-13T08:24:23;102337.31;;;4.53;100.00
37764;BME280;23602;51.084;7.090;2023-02-13T08:26:48;102330.41;;;4.51;100.00
37764;BME280;23602;51.084;7.090;2023-02-13T08:29:14;102322.41;;;4.51;100.00
37764;BME280;23602;51.084;7.090;2023-02-13T08:31:39;102334.28;;;4.58;100.00
37764;BME280;23602;51.084;7.090;2023-02-13T08:34:07;102331.41;;;4.61;100.00
37764;BME280;23602;51.084;7.090;2023-02-13T08:36:33;102327.91;;;4.71;100.00
37764;BME280;23602;51.084;7.090;2023-02-13T08:38:58;102325.53;;;4.90;100.00
37764;BME280;23602;51.084;7.090;2023-02-13T08:41:23;102328.31;;;5.00;100.00
37764;BME280;23602;51.084;7.090;2023-02-13T08:43:52;102313.53;;;5.07;100.00
37764;BME280;23602;51.084;7.090;2023-02-13T08:46:17;102296.56;;;5.19;100.00
37764;BME280;23602;51.084;7.090;2023-02-13T08:48:43;102288.81;;;5.27;100.00
37764;BME280;23602;51.084;7.090;2023-02-13T08:51:08;102277.16;;;5.39;100.00
37764;BME280;23602;51.084;7.090;2023-02-13T08:53:39;102256.66;;;5.51;100.00
37764;BME280;23602;51.084;7.090;2023-02-13T08:56:09;102263.56;;;5.53;100.00
37764;BME280;23602;51.084;7.090;2023-02-13T08:58:37;102259.66;;;5.57;100.00
37764;BME280;23602;51.084;7.090;2023-02-13T09:01:06;102252.72;;;5.66;100.00
37764;BME280;23602;51.084;7.090;2023-02-13T09:03:32;102252.09;;;5.73;100.00
37764;BME280;23602;51.084;7.090;2023-02-13T09:05:57;102231.38;;;5.98;100.00
37764;BME280;23602;51.084;7.090;2023-02-13T09:08:23;102234.50;;;6.03;100.00
37764;BME280;23602;51.084;7.090;2023-02-13T09:10:57;102229.19;;;6.03;100.00
37764;BME280;23602;51.084;7.090;2023-02-13T09:13:30;102236.22;;;6.04;100.00
37764;BME280;23602;51.084;7.090;2023-02-13T09:16:06;102236.81;;;6.07;100.00
37764;BME280;23602;51.084;7.090;2023-02-13T09:18:34;102213.06;;;6.25;100.00
37764;BME280;23602;51.084;7.090;2023-02-13T09:21:22;102197.47;;;6.51;100.00
37764;BME280;23602;51.084;7.090;2023-02-13T09:23:47;102181.09;;;6.74;100.00
37764;BME280;23602;51.084;7.090;2023-02-13T09:26:21;102177.06;;;6.89;100.00
37764;BME280;23602;51.084;7.090;2023-02-13T09:28:46;102176.53;;;6.95;100.00
37764;BME280;23602;51.084;7.090;2023-02-13T09:31:12;102163.59;;;7.10;100.00
37764;BME280;23602;51.084;7.090;2023-02-13T09:33:45;102170.66;;;7.21;100.00
37764;BME280;23602;51.084;7.090;2023-02-13T09:36:21;102171.94;;;7.26;100.00
37764;BME280;23602;51.084;7.090;2023-02-13T09:38:50;102159.31;;;7.47;100.00
37764;BME280;23602;51.084;7.090;2023-02-13T09:41:24;102163.25;;;7.62;100.00
37764;BME280;23602;51.084;7.090;2023-02-13T09:44:00;102166.59;;;7.74;100.00
37764;BME280;23602;51.084;7.090;2023-02-13T09:48:55;102149.19;;;8.16;100.00
37764;BME280;23602;51.084;7.090;2023-02-13T09:51:23;102135.50;;;8.39;100.00
37764;BME280;23602;51.084;7.090;2023-02-13T09:53:54;102134.16;;;8.52;100.00
37764;BME280;23602;51.084;7.090;2023-02-13T09:56:22;102133.41;;;8.60;100.00
37764;BME280;23602;51.084;7.090;2023-02-13T09:59:00;102137.84;;;8.78;100.00
37764;BME280;23602;51.084;7.090;2023-02-13T10:01:34;102129.66;;;8.98;100.00
37764;BME280;23602;51.084;7.090;2023-02-13T10:04:06;102131.78;;;9.21;100.00
37764;BME280;23602;51.084;7.090;2023-02-13T10:06:42;102136.63;;;9.53;100.00
37764;BME280;23602;51.084;7.090;2023-02-13T10:09:30;102124.00;;;9.89;100.00
37764;BME280;23602;51.084;7.090;2023-02-13T10:12:16;102129.97;;;10.26;100.00
37764;BME280;23602;51.084;7.090;2023-02-13T10:14:47;102126.75;;;10.90;100.00
37764;BME280;23602;51.084;7.090;2023-02-13T10:17:31;102130.69;;;11.20;100.00
37764;BME280;23602;51.084;7.090;2023-02-13T10:19:58;102120.75;;;11.20;100.00
37764;BME280;23602;51.084;7.090;2023-02-13T10:22:42;102114.75;;;11.59;100.00
37764;BME280;23602;51.084;7.090;2023-02-13T10:25:11;102117.44;;;11.91;100.00
37764;BME280;23602;51.084;7.090;2023-02-13T10:27:42;102120.94;;;12.16;100.00
37764;BME280;23602;51.084;7.090;2023-02-13T10:38:28;102102.91;;;12.71;100.00
37764;BME280;23602;51.084;7.090;2023-02-13T10:43:44;102123.69;;;11.83;100.00
37764;BME280;23602;51.084;7.090;2023-02-13T10:46:17;102127.34;;;11.26;100.00
37764;BME280;23602;51.084;7.090;2023-02-13T10:56:19;102123.56;;;10.95;100.00
37764;BME280;23602;51.084;7.090;2023-02-13T11:04:12;102103.09;;;12.15;100.00
37764;BME280;23602;51.084;7.090;2023-02-13T11:06:42;102097.16;;;12.97;100.00
37764;BME280;23602;51.084;7.090;2023-02-13T11:09:10;102091.41;;;13.30;100.00
37764;BME280;23602;51.084;7.090;2023-02-13T11:11:38;102078.81;;;13.23;100.00
37764;BME280;23602;51.084;7.090;2023-02-13T11:14:08;102091.72;;;13.13;100.00
37764;BME280;23602;51.084;7.090;2023-02-13T11:16:38;102080.66;;;12.61;100.00
37764;BME280;23602;51.084;7.090;2023-02-13T11:19:04;102091.34;;;11.83;100.00
37764;BME280;23602;51.084;7.090;2023-02-13T11:21:33;102085.44;;;11.48;100.00
37764;BME280;23602;51.084;7.090;2023-02-13T11:23:59;102082.25;;;11.28;100.00
37764;BME280;23602;51.084;7.090;2023-02-13T11:28:52;102076.69;;;11.29;100.00
37764;BME280;23602;51.084;7.090;2023-02-13T11:31:23;102070.28;;;11.63;100.00
37764;BME280;23602;51.084;7.090;2023-02-13T11:33:49;102065.88;;;12.10;100.00
37764;BME280;23602;51.084;7.090;2023-02-13T11:36:16;102066.97;;;12.71;100.00
37764;BME280;23602;51.084;7.090;2023-02-13T11:38:42;102053.91;;;12.82;100.00
37764;BME280;23602;51.084;7.090;2023-02-13T11:41:08;102056.84;;;13.03;100.00
37764;BME280;23602;51.084;7.090;2023-02-13T11:43:45;102061.56;;;12.79;100.00
37764;BME280;23602;51.084;7.090;2023-02-13T11:46:16;102051.75;;;12.47;100.00
37764;BME280;23602;51.084;7.090;2023-02-13T11:48:45;102055.38;;;12.23;100.00
37764;BME280;23602;51.084;7.090;2023-02-13T11:51:19;102049.22;;;12.07;100.00
37764;BME280;23602;51.084;7.090;2023-02-13T11:53:45;102053.22;;;12.11;100.00
37764;BME280;23602;51.084;7.090;2023-02-13T11:56:11;102037.38;;;12.16;100.00
37764;BME280;23602;51.084;7.090;2023-02-13T11:58:37;102037.75;;;12.13;100.00
37764;BME280;23602;51.084;7.090;2023-02-13T12:03:43;102037.53;;;12.22;100.00
37764;BME280;23602;51.084;7.090;2023-02-13T12:06:13;102035.50;;;12.24;100.00
37764;BME280;23602;51.084;7.090;2023-02-13T12:08:40;102026.97;;;12.13;100.00
37764;BME280;23602;51.084;7.090;2023-02-13T12:11:12;102034.03;;;12.14;100.00
37764;BME280;23602;51.084;7.090;2023-02-13T12:13:40;102030.31;;;12.15;100.00
37764;BME280;23602;51.084;7.090;2023-02-13T12:16:51;102021.59;;;12.13;100.00
37764;BME280;23602;51.084;7.090;2023-02-13T12:18:52;102025.41;;;12.18;100.00
37764;BME280;23602;51.084;7.090;2023-02-13T12:26:44;102009.22;;;12.26;100.00
37764;BME280;23602;51.084;7.090;2023-02-13T12:31:58;102003.09;;;12.40;100.00
37764;BME280;23602;51.084;7.090;2023-02-13T12:34:46;102000.63;;;12.53;100.00
37764;BME280;23602;51.084;7.090;2023-02-13T12:37:15;102005.72;;;12.48;100.00
37764;BME280;23602;51.084;7.090;2023-02-13T12:39:54;102001.47;;;12.54;100.00
37764;BME280;23602;51.084;7.090;2023-02-13T12:53:26;102001.78;;;12.28;100.00
37764;BME280;23602;51.084;7.090;2023-02-13T12:56:00;101994.06;;;12.25;100.00
37764;BME280;23602;51.084;7.090;2023-02-13T12:58:34;101989.50;;;12.26;100.00
37764;BME280;23602;51.084;7.090;2023-02-13T13:14:05;101977.91;;;12.79;100.00
37764;BME280;23602;51.084;7.090;2023-02-13T13:19:04;101977.47;;;12.67;100.00
37764;BME280;23602;51.084;7.090;2023-02-13T13:24:24;101963.88;;;12.60;100.00
37764;BME280;23602;51.084;7.090;2023-02-13T13:26:52;101960.69;;;12.57;100.00
37764;BME280;23602;51.084;7.090;2023-02-13T13:32:13;101961.53;;;12.57;100.00
37764;BME280;23602;51.084;7.090;2023-02-13T13:34:40;101959.13;;;12.62;100.00
37764;BME280;23602;51.084;7.090;2023-02-13T13:37:11;101956.38;;;12.71;100.00
37764;BME280;23602;51.084;7.090;2023-02-13T13:39:55;101952.53;;;12.65;100.00
37764;BME280;23602;51.084;7.090;2023-02-13T13:42:26;101951.34;;;12.67;100.00
37764;BME280;23602;51.084;7.090;2023-02-13T13:49:50;101954.59;;;12.63;100.00
37764;BME280;23602;51.084;7.090;2023-02-13T13:52:27;101952.59;;;12.57;100.00
37764;BME280;23602;51.084;7.090;2023-02-13T13:54:53;101950.25;;;12.54;100.00
37764;BME280;23602;51.084;7.090;2023-02-13T14:07:24;101932.91;;;12.48;100.00
37764;BME280;23602;51.084;7.090;2023-02-13T14:09:49;101933.59;;;12.50;100.00
37764;BME280;23602;51.084;7.090;2023-02-13T14:14:49;101926.16;;;12.52;100.00
37764;BME280;23602;51.084;7.090;2023-02-13T14:17:16;101928.66;;;12.54;100.00
37764;BME280;23602;51.084;7.090;2023-02-13T14:20:01;101919.56;;;12.55;100.00
37764;BME280;23602;51.084;7.090;2023-02-13T14:22:32;101923.78;;;12.57;100.00
37764;BME280;23602;51.084;7.090;2023-02-13T14:25:03;101917.22;;;12.52;100.00
37764;BME280;23602;51.084;7.090;2023-02-13T14:27:36;101909.13;;;12.52;100.00
37764;BME280;23602;51.084;7.090;2023-02-13T14:30:02;101924.66;;;12.50;100.00
37764;BME280;23602;51.084;7.090;2023-02-13T14:32:36;101926.31;;;12.51;100.00
37764;BME280;23602;51.084;7.090;2023-02-13T14:35:04;101929.41;;;12.48;100.00
37764;BME280;23602;51.084;7.090;2023-02-13T14:37:31;101924.13;;;12.54;100.00
37764;BME280;23602;51.084;7.090;2023-02-13T14:40:12;101925.28;;;12.60;100.00
37764;BME280;23602;51.084;7.090;2023-02-13T14:42:59;101930.81;;;12.58;100.00
37764;BME280;23602;51.084;7.090;2023-02-13T14:45:29;101928.22;;;12.50;100.00
37764;BME280;23602;51.084;7.090;2023-02-13T14:47:56;101922.50;;;12.45;100.00
37764;BME280;23602;51.084;7.090;2023-02-13T14:50:27;101920.81;;;12.44;100.00
37764;BME280;23602;51.084;7.090;2023-02-13T14:52:53;101922.50;;;12.45;100.00
37764;BME280;23602;51.084;7.090;2023-02-13T14:58:18;101920.41;;;12.33;100.00
37764;BME280;23602;51.084;7.090;2023-02-13T15:00:56;101920.97;;;12.20;100.00
37764;BME280;23602;51.084;7.090;2023-02-13T15:03:27;101920.47;;;12.17;100.00
37764;BME280;23602;51.084;7.090;2023-02-13T15:05:55;101919.00;;;12.06;100.00